• Join FlightAware (Why Join?)
  • Login
  • US Flag 
04:55PM EST


 

Airport Tracker/Info


-or-


 

Live Flight TrackerFlight Track Log ✈ UCA3599 ✈ 07-Nov-2013 ✈ KBGM - KIAD

Flight Track Log - Related Links

Times and Time Zones

All times are in EST time to prevent confusion due to time zone crossing. See the UCA3599 flight status page for this flight to view local times or setup timezone preferences in your user account.

Time Position Orientation Groundspeed Altitude Reporting Facility
EST Latitude Longitude Course Direction KTS MPH feet Rate Location/Type
05:52AM 42.1789 -75.9478 212° Southwest 258 297 3,300  Level New York Center
05:53AM 42.1411 -75.9589 192° South 176 203 4,300 1,260 Climbing New York Center
05:54AM 42.1064 -75.9925 216° Southwest 258 297 5,900 1,440 Climbing New York Center
05:55AM 42.0733 -76.0289 219° Southwest 208 239 7,300 1,500 Climbing New York Center
05:56AM 42.0300 -76.0700 215° Southwest 175 201 8,900 1,440 Climbing New York Center
05:57AM 41.9928 -76.1089 218° Southwest 170 196 10,200 1,380 Climbing New York Center
05:58AM 41.8471 -76.1514 212° Southwest  Level Estimated
05:58AM 41.9558 -76.1478 218° Southwest 170 196 11,700  Level New York Center
05:59AM 41.9250 -76.1817 219° Southwest 170 196 13,200 1,380 Climbing New York Center
06:00AM 41.8881 -76.2175 216° Southwest 170 196 14,500 1,320 Climbing New York Center
06:01AM 41.8486 -76.2589 218° Southwest 170 196 16,000 720 Climbing New York Center
06:02AM 41.8072 -76.3000 217° Southwest 178 205 16,000  Level New York Center
06:03AM 41.7678 -76.3411 218° Southwest 199 229 16,000  Level New York Center
06:04AM 41.7219 -76.3875 217° Southwest 209 241 16,000  Level New York Center
06:05AM 41.6717 -76.4361 216° Southwest 209 241 16,000  Level New York Center
06:06AM 41.6253 -76.4875 220° Southwest 214 246 16,000  Level New York Center
06:07AM 41.5775 -76.5333 216° Southwest 214 246 16,000  Level New York Center
06:08AM 41.5356 -76.5769 218° Southwest 214 246 16,000  Level New York Center
06:09AM 41.4897 -76.6228 217° Southwest 214 246 16,000  Level New York Center
06:10AM 41.4372 -76.6736 216° Southwest 214 246 16,000  Level New York Center
06:11AM 41.3953 -76.7225 221° Southwest 214 246 16,000  Level New York Center
06:12AM 41.3492 -76.7653 215° Southwest 214 246 16,000  Level New York Center
06:13AM 41.2939 -76.7908 199° South 209 241 16,000  Level New York Center
06:14AM 41.2267 -76.7986 185° South 209 241 16,000  Level New York Center
06:15AM 41.1678 -76.8128 190° South 221 254 16,000  Level New York Center
06:16AM 41.1131 -76.8217 187° South 216 249 16,000  Level New York Center
06:17AM 41.0561 -76.8358 191° South 216 249 16,000  Level New York Center
06:18AM 41.0014 -76.8447 187° South 211 243 16,000  Level New York Center
06:19AM 40.9467 -76.8536 187° South 206 237 16,000  Level New York Center
06:20AM 40.8919 -76.8678 191° South 200 230 16,000  Level New York Center
06:21AM 40.8414 -76.8744 186° South 200 230 16,000  Level New York Center
06:22AM 40.7825 -76.8883 190° South 200 230 16,000 -60 Level New York Center
06:23AM 40.7317 -76.9028 192° South 200 230 15,900  Descending New York Center
06:24AM 40.6722 -76.9222 194° South 205 236 16,000  Climbing New York Center
06:25AM 40.6236 -76.9369 193° South 205 236 16,000  Level New York Center
06:26AM 40.5642 -76.9564 194° South 205 236 16,000  Level New York Center
06:27AM 40.5156 -76.9711 193° South 205 236 16,000  Level New York Center
06:28AM 40.4583 -76.9906 194° South 205 236 16,000 -300 Level New York Center
06:29AM 40.4094 -77.0053 193° South 205 236 15,400 -720 Descending New York Center
06:30AM 40.3481 -77.0242 193° South 205 236 14,600 -840 Descending New York Center
06:31AM 40.2972 -77.0386 192° South 210 242 13,800 -840 Descending New York Center
06:35AM 40.1000 -77.1000 193° South 207 238 11,000 -840 Descending Potomac TRACON
06:36AM 40.0333 -77.1167 191° South 203 234 10,200 -780 Descending Potomac TRACON
06:37AM 39.9833 -77.1333 194° South 222 255 9,400 -720 Descending Potomac TRACON
06:38AM 39.9333 -77.1500 194° South 233 268 9,000 -240 Descending Potomac TRACON
06:39AM 39.8667 -77.1667 191° South 244 281 9,000 -420 Level Potomac TRACON
06:40AM 39.8167 -77.2167 218° Southwest 236 272 8,200 -720 Descending Potomac TRACON
06:41AM 39.7667 -77.2500 207° Southwest 239 275 7,800 -720 Descending Potomac TRACON
06:41AM 39.7167 -77.2833 207° Southwest 244 281 7,000 -780 Descending Potomac TRACON
06:43AM 39.6500 -77.3167 201° Southwest 250 288 6,300 -720 Descending Potomac TRACON
06:43AM 39.5833 -77.3667 210° Southwest 247 284 5,600 -780 Descending Potomac TRACON
06:44AM 39.5333 -77.4000 207° Southwest 244 281 4,900 -720 Descending Potomac TRACON
06:45AM 39.4667 -77.4167 191° South 249 287 4,300 -480 Descending Potomac TRACON
06:46AM 39.4000 -77.4333 191° South 239 275 4,000 -240 Descending Potomac TRACON
06:47AM 39.3333 -77.4333 180° South 239 275 3,900 -300 Descending Potomac TRACON
06:48AM 39.2667 -77.4333 180° South 246 283 3,500 -420 Descending Potomac TRACON
06:49AM 39.2000 -77.4333 180° South 245 282 3,100 -300 Descending Potomac TRACON
06:50AM 39.1333 -77.4333 180° South 235 270 3,000 -240 Descending Potomac TRACON
06:51AM 39.0833 -77.4333 180° South 196 226 2,700 -600 Descending Potomac TRACON
06:52AM 39.0333 -77.4333 180° South 157 181 1,900 -780 Descending Potomac TRACON
06:53AM 39.0000 -77.4333 180° South 104 120 1,300 -600 Descending Potomac TRACON
06:54AM 38.9833 -77.4333 180° South 106 122 700 -600 Descending Potomac TRACON
06:56AM 38.9474 -77.4599 142° Southeast  Level Estimated
07:03AM 38.9474 -77.4599 333° Northwest  Level Estimated
07:04AM 38.9474 -77.4599 349° North  Level Estimated